Time;durP1;ratioP1;P1;durP2;ratioP2;P2;SDS_P1;SDS_P2;PMS_P1;PMS_P2;Temp;Humidity;BMP_temperature;BMP_pressure;BME280_temperature;BME280_humidity;BME280_pressure;Samples;Min_cycle;Max_cycle;Signal;HPM_P1;HPM_P2
2021/01/30 00:02:30;;;;;;;3.08;1.10;;;5.90;99.90;;;;;;8327241;28;20043;-75
2021/01/30 00:06:30;;;;;;;0.90;0.60;;;5.90;99.90;;;;;;8326773;28;20099;-76
2021/01/30 00:10:31;;;;;;;3.47;0.95;;;5.90;99.90;;;;;;8326652;28;20021;-76
2021/01/30 00:14:35;;;;;;;2.70;1.10;;;6.00;99.90;;;;;;8349464;28;20060;-75
2021/01/30 00:18:36;;;;;;;4.97;0.73;;;6.00;99.90;;;;;;8358796;28;20025;-75
2021/01/30 00:22:36;;;;;;;0.45;0.40;;;6.00;99.90;;;;;;8359853;28;20087;-76
2021/01/30 00:26:37;;;;;;;0.73;0.50;;;6.00;99.90;;;;;;8357277;28;20495;-75
2021/01/30 00:30:38;;;;;;;2.00;0.75;;;6.10;99.90;;;;;;8359486;28;20086;-76
2021/01/30 00:34:39;;;;;;;0.75;0.50;;;6.00;99.90;;;;;;8357991;28;20114;-75
2021/01/30 00:38:40;;;;;;;1.88;0.68;;;6.00;99.90;;;;;;8358455;28;20082;-76
2021/01/30 00:42:40;;;;;;;1.50;0.90;;;6.10;99.90;;;;;;8359261;28;20064;-75
2021/01/30 00:46:41;;;;;;;0.68;0.38;;;6.00;99.90;;;;;;8358062;28;20525;-75
2021/01/30 00:50:42;;;;;;;2.72;0.70;;;6.00;99.90;;;;;;8358473;28;20018;-76
2021/01/30 00:54:44;;;;;;;6.70;0.75;;;5.90;99.90;;;;;;8357737;28;20029;-76
2021/01/30 00:58:45;;;;;;;2.00;0.90;;;6.00;99.90;;;;;;8361550;28;20034;-76
2021/01/30 01:02:46;;;;;;;3.40;0.80;;;6.00;99.90;;;;;;8331052;28;20021;-76
2021/01/30 01:06:48;;;;;;;1.27;0.50;;;5.90;99.90;;;;;;8331979;28;20396;-75
2021/01/30 01:10:48;;;;;;;1.65;0.45;;;5.90;99.90;;;;;;8330708;28;20885;-75
2021/01/30 01:14:49;;;;;;;1.92;0.70;;;5.80;99.90;;;;;;8356951;28;20044;-75
2021/01/30 01:18:50;;;;;;;2.28;0.70;;;5.80;99.90;;;;;;8363696;28;20031;-76
2021/01/30 01:22:52;;;;;;;0.35;0.28;;;5.70;99.90;;;;;;8363060;28;20079;-76
2021/01/30 01:26:52;;;;;;;1.88;0.60;;;5.70;99.90;;;;;;8364168;28;20060;-76
2021/01/30 01:30:53;;;;;;;1.40;0.70;;;5.70;99.90;;;;;;8361754;28;20180;-76
2021/01/30 01:34:53;;;;;;;0.88;0.55;;;5.70;99.90;;;;;;8364002;28;20106;-76
2021/01/30 01:38:54;;;;;;;1.80;0.57;;;5.70;99.90;;;;;;8362901;28;20029;-77
2021/01/30 01:43:06;;;;;;;0.45;0.40;;;5.80;99.90;;;;;;8361687;28;20032;-75
2021/01/30 01:47:37;;;;;;;1.70;0.55;;;5.80;99.90;;;;;;8362454;28;20115;-76
2021/01/30 01:51:58;;;;;;;3.85;0.60;;;5.80;99.90;;;;;;8359324;28;20079;-75
2021/01/30 01:56:03;;;;;;;2.97;0.40;;;5.80;99.90;;;;;;8363312;28;20033;-76
2021/01/30 02:00:06;;;;;;;1.90;0.50;;;5.80;99.90;;;;;;8362020;28;20135;-76
2021/01/30 02:04:10;;;;;;;1.63;0.40;;;5.90;99.90;;;;;;8360564;28;20029;-76
2021/01/30 02:08:13;;;;;;;3.47;0.50;;;5.90;99.90;;;;;;8362273;28;20021;-76
2021/01/30 02:12:14;;;;;;;1.95;0.32;;;5.90;99.90;;;;;;8361623;28;20070;-76
2021/01/30 02:16:21;;;;;;;1.65;0.60;;;5.90;99.90;;;;;;8362510;28;20479;-76
2021/01/30 02:20:50;;;;;;;3.00;0.60;;;5.90;99.90;;;;;;8361364;28;20025;-75
2021/01/30 02:25:12;;;;;;;0.57;0.30;;;5.90;99.90;;;;;;8361101;28;20479;-75
2021/01/30 02:29:46;;;;;;;2.55;0.47;;;5.90;99.90;;;;;;8360623;28;20029;-76
2021/01/30 02:33:59;;;;;;;0.98;0.35;;;5.70;99.90;;;;;;8361171;28;20115;-76
2021/01/30 02:38:16;;;;;;;0.80;0.50;;;5.70;99.90;;;;;;8359830;28;20061;-76
2021/01/30 02:42:22;;;;;;;0.80;0.45;;;5.60;99.90;;;;;;8360892;28;20426;-76
2021/01/30 02:46:28;;;;;;;2.20;0.50;;;5.50;99.90;;;;;;8361317;28;20369;-76
2021/01/30 02:50:34;;;;;;;1.02;0.40;;;5.60;99.90;;;;;;8360517;28;20052;-77
2021/01/30 02:54:37;;;;;;;0.40;0.40;;;5.60;99.90;;;;;;8361501;28;20021;-76
2021/01/30 02:58:46;;;;;;;3.63;0.75;;;5.50;99.90;;;;;;8360316;28;20082;-76
2021/01/30 03:02:47;;;;;;;1.60;0.52;;;5.60;99.90;;;;;;8361346;28;20090;-76
2021/01/30 03:06:59;;;;;;;2.42;0.65;;;5.60;99.90;;;;;;8361133;28;20032;-76
2021/01/30 03:11:19;;;;;;;2.20;0.60;;;5.70;99.90;;;;;;8362667;28;20655;-76
2021/01/30 03:15:52;;;;;;;2.08;0.73;;;5.70;99.90;;;;;;8361270;28;20056;-76
2021/01/30 03:19:55;;;;;;;3.83;0.70;;;5.80;99.90;;;;;;8359626;28;20028;-76
2021/01/30 03:23:59;;;;;;;2.30;0.40;;;5.80;99.90;;;;;;8358977;28;20064;-76
2021/01/30 03:28:01;;;;;;;8.70;1.60;;;5.70;99.90;;;;;;8360215;28;20017;-76
2021/01/30 03:32:01;;;;;;;4.55;0.80;;;5.70;99.90;;;;;;8360621;28;20024;-75
2021/01/30 03:36:02;;;;;;;4.93;0.38;;;5.60;99.90;;;;;;8359134;28;20016;-76
2021/01/30 03:40:08;;;;;;;1.00;0.50;;;5.60;99.90;;;;;;8349396;28;20137;-75
2021/01/30 03:44:11;;;;;;;4.38;0.60;;;5.60;99.90;;;;;;8346940;28;20120;-76
2021/01/30 03:48:11;;;;;;;1.55;0.35;;;5.50;99.90;;;;;;8359951;28;20021;-76
2021/01/30 03:52:12;;;;;;;1.90;0.75;;;5.60;99.90;;;;;;8360639;28;20538;-76
2021/01/30 03:56:13;;;;;;;6.68;0.95;;;5.70;99.90;;;;;;8359108;28;20032;-76
2021/01/30 04:00:17;;;;;;;6.70;1.00;;;5.70;99.90;;;;;;8359218;28;20040;-76
2021/01/30 04:04:18;;;;;;;7.57;0.60;;;5.70;99.90;;;;;;8358903;28;20074;-76
2021/01/30 04:08:18;;;;;;;5.45;0.80;;;5.70;99.90;;;;;;8360187;28;20100;-76
2021/01/30 04:12:19;;;;;;;5.57;1.30;;;5.60;99.90;;;;;;8353240;28;20044;-76
2021/01/30 04:16:20;;;;;;;6.35;1.20;;;5.70;99.90;;;;;;8359730;28;20377;-76
2021/01/30 04:20:21;;;;;;;5.22;0.98;;;5.80;99.90;;;;;;8359486;28;20033;-76
2021/01/30 04:24:22;;;;;;;6.60;0.60;;;5.70;99.90;;;;;;8347664;28;20033;-75
2021/01/30 04:28:22;;;;;;;3.42;1.05;;;5.60;99.90;;;;;;8325550;28;20056;-76
2021/01/30 04:32:24;;;;;;;9.43;1.27;;;5.60;99.90;;;;;;8329837;28;20025;-76
2021/01/30 04:36:25;;;;;;;6.80;1.15;;;5.60;99.90;;;;;;8331951;28;20057;-76
2021/01/30 04:40:38;;;;;;;10.93;1.30;;;5.60;99.90;;;;;;8333101;28;20451;-76
2021/01/30 04:44:53;;;;;;;1.80;0.75;;;5.50;99.90;;;;;;8344008;28;20499;-75
2021/01/30 04:49:08;;;;;;;5.78;1.00;;;5.40;99.90;;;;;;8331105;28;20030;-76
2021/01/30 04:53:18;;;;;;;4.10;1.15;;;5.50;99.90;;;;;;8331717;28;20029;-76
2021/01/30 04:57:36;;;;;;;5.15;1.00;;;5.50;99.90;;;;;;8332532;28;20044;-75
2021/01/30 05:01:37;;;;;;;7.65;1.13;;;5.50;99.90;;;;;;8330757;28;20034;-76
2021/01/30 05:05:41;;;;;;;6.88;1.13;;;5.50;99.90;;;;;;8332114;28;20072;-75
2021/01/30 05:09:53;;;;;;;3.35;0.77;;;5.50;99.90;;;;;;8332124;28;20075;-76
2021/01/30 05:14:13;;;;;;;6.10;0.98;;;5.50;99.90;;;;;;8350963;28;20379;-75
2021/01/30 05:18:33;;;;;;;5.78;0.57;;;5.50;99.90;;;;;;8362806;28;20051;-75
2021/01/30 05:22:46;;;;;;;7.32;0.90;;;5.60;99.90;;;;;;8363754;28;20087;-76
2021/01/30 05:27:03;;;;;;;3.00;0.55;;;5.40;99.90;;;;;;8362975;28;20024;-75
2021/01/30 05:31:33;;;;;;;5.78;0.73;;;5.40;99.90;;;;;;8364147;28;20479;-75
2021/01/30 05:35:45;;;;;;;5.03;0.90;;;5.40;99.90;;;;;;8334671;28;20036;-75
2021/01/30 05:40:10;;;;;;;1.08;0.43;;;5.30;99.90;;;;;;8362547;28;20052;-76
2021/01/30 05:44:23;;;;;;;3.78;0.73;;;5.40;99.90;;;;;;8361563;28;20440;-76
2021/01/30 05:48:28;;;;;;;5.50;0.68;;;5.40;99.90;;;;;;8361374;28;20029;-76
2021/01/30 05:52:32;;;;;;;3.53;0.93;;;5.40;99.90;;;;;;8363619;28;20021;-76
2021/01/30 05:56:44;;;;;;;3.10;0.60;;;5.40;99.90;;;;;;8363169;28;20036;-76
2021/01/30 06:00:45;;;;;;;3.35;0.50;;;5.30;99.90;;;;;;8362088;28;20103;-76
2021/01/30 06:04:47;;;;;;;4.03;1.02;;;5.30;99.90;;;;;;8361527;28;20529;-75
2021/01/30 06:09:22;;;;;;;5.47;1.05;;;5.30;99.90;;;;;;8356612;28;20108;-76
2021/01/30 06:13:27;;;;;;;5.43;1.10;;;5.30;99.90;;;;;;8354512;28;20563;-75
2021/01/30 06:17:27;;;;;;;3.20;0.93;;;5.30;99.90;;;;;;8349958;28;20078;-76
2021/01/30 06:21:28;;;;;;;5.80;1.60;;;5.30;99.90;;;;;;8349287;28;20029;-75
2021/01/30 06:25:38;;;;;;;2.75;1.08;;;5.40;99.90;;;;;;8342051;28;20391;-76
2021/01/30 06:29:49;;;;;;;7.47;1.33;;;5.40;99.90;;;;;;8359158;28;20491;-75
2021/01/30 06:33:54;;;;;;;2.60;0.82;;;5.30;99.90;;;;;;8361874;28;20023;-75
2021/01/30 06:38:00;;;;;;;6.53;1.08;;;5.40;99.90;;;;;;8362107;28;20029;-75
2021/01/30 06:42:16;;;;;;;4.93;1.00;;;5.40;99.90;;;;;;8362269;28;20036;-76
2021/01/30 06:46:20;;;;;;;5.25;1.20;;;5.30;99.90;;;;;;8361826;28;20036;-75
2021/01/30 06:50:40;;;;;;;4.53;0.80;;;5.40;99.90;;;;;;8359826;28;20036;-75
2021/01/30 06:54:41;;;;;;;5.30;1.33;;;5.40;99.90;;;;;;8355116;28;20231;-74
2021/01/30 06:58:43;;;;;;;6.43;1.00;;;5.40;99.90;;;;;;8359730;28;20048;-75
2021/01/30 07:02:50;;;;;;;5.57;1.17;;;5.60;99.90;;;;;;8360408;28;20112;-75
2021/01/30 07:07:20;;;;;;;6.18;0.95;;;5.70;99.90;;;;;;8357626;28;20301;-75
2021/01/30 07:11:47;;;;;;;10.32;1.25;;;5.60;99.90;;;;;;8361193;28;20108;-76
2021/01/30 07:16:09;;;;;;;13.55;1.38;;;5.90;99.90;;;;;;8327824;28;20496;-76
2021/01/30 07:20:36;;;;;;;6.97;1.20;;;6.00;99.90;;;;;;8326309;28;20374;-75
2021/01/30 07:24:47;;;;;;;5.22;1.13;;;6.00;99.90;;;;;;8340519;28;20404;-76
2021/01/30 07:29:21;;;;;;;6.53;1.30;;;5.80;99.90;;;;;;8349144;28;20033;-76
2021/01/30 07:33:29;;;;;;;4.82;1.10;;;5.50;99.90;;;;;;8369094;28;20028;-76
2021/01/30 07:37:44;;;;;;;6.05;1.10;;;5.50;99.90;;;;;;8358216;28;20039;-76
2021/01/30 07:42:04;;;;;;;6.80;0.98;;;5.40;99.90;;;;;;8357198;28;20028;-76
2021/01/30 07:46:19;;;;;;;7.53;1.20;;;5.40;99.90;;;;;;8346461;28;20091;-76
2021/01/30 07:50:42;;;;;;;6.18;1.20;;;5.50;99.90;;;;;;8357816;28;20606;-77
2021/01/30 07:54:50;;;;;;;3.33;0.90;;;5.50;99.90;;;;;;8354220;28;20052;-77
2021/01/30 07:59:12;;;;;;;11.30;4.32;;;5.60;99.90;;;;;;8332905;28;20029;-76
2021/01/30 08:03:33;;;;;;;20.95;8.43;;;5.60;99.90;;;;;;8328904;28;20127;-81
2021/01/30 08:07:54;;;;;;;5.15;1.05;;;5.60;99.90;;;;;;8329904;28;20026;-77
2021/01/30 08:12:20;;;;;;;11.02;2.22;;;5.70;99.90;;;;;;8341406;28;20056;-76
2021/01/30 08:16:57;;;;;;;1.10;0.70;;;5.70;99.90;;;;;;8330420;28;20034;-77
2021/01/30 08:21:26;;;;;;;9.15;2.33;;;5.80;99.90;;;;;;8331330;28;20060;-77
2021/01/30 08:25:37;;;;;;;4.90;1.38;;;6.00;99.90;;;;;;8332559;28;20037;-77
2021/01/30 08:29:47;;;;;;;5.57;1.25;;;6.10;99.90;;;;;;8344627;28;20549;-76
2021/01/30 08:34:01;;;;;;;2.88;0.85;;;6.10;99.90;;;;;;8364861;28;20061;-76
2021/01/30 08:38:31;;;;;;;7.60;1.50;;;6.20;99.90;;;;;;8364186;28;20036;-76
2021/01/30 08:42:38;;;;;;;5.50;1.20;;;6.30;99.90;;;;;;8347613;28;20410;-76
2021/01/30 08:46:39;;;;;;;2.00;0.98;;;7.20;99.90;;;;;;8362600;28;20407;-77
2021/01/30 08:50:49;;;;;;;7.03;1.40;;;7.20;99.90;;;;;;8364009;28;20047;-76
2021/01/30 08:54:50;;;;;;;5.28;1.15;;;7.00;99.90;;;;;;8364253;28;20035;-73
2021/01/30 08:58:51;;;;;;;4.65;1.27;;;6.70;99.90;;;;;;8363021;28;20040;-72
2021/01/30 09:02:53;;;;;;;7.70;1.80;;;6.80;99.90;;;;;;8362606;28;20586;-72
2021/01/30 09:06:56;;;;;;;7.38;1.30;;;6.80;99.90;;;;;;8362496;28;20028;-77
2021/01/30 09:11:23;;;;;;;6.38;1.60;;;7.00;99.90;;;;;;8362654;28;20021;-77
2021/01/30 09:15:41;;;;;;;7.90;1.40;;;6.80;99.90;;;;;;8354744;28;20108;-77
2021/01/30 09:19:48;;;;;;;6.65;1.33;;;6.90;99.90;;;;;;8359217;28;20032;-77
2021/01/30 09:24:48;;;;;;;7.25;1.90;;;7.00;99.90;;;;;;8360954;28;20020;-77
2021/01/30 09:28:58;;;;;;;6.90;1.30;;;7.10;99.90;;;;;;8341600;28;20028;-77
2021/01/30 09:33:01;;;;;;;6.32;1.70;;;7.30;99.90;;;;;;8360637;28;20069;-77
2021/01/30 09:37:02;;;;;;;11.05;2.08;;;7.30;99.90;;;;;;8349168;28;20036;-75
2021/01/30 09:41:27;;;;;;;6.78;1.63;;;7.30;99.90;;;;;;8349575;28;20510;-76
2021/01/30 09:45:29;;;;;;;9.55;1.38;;;7.50;99.90;;;;;;8360803;28;20024;-76
2021/01/30 09:49:43;;;;;;;8.30;1.23;;;7.70;99.90;;;;;;8343620;28;20022;-76
2021/01/30 09:53:56;;;;;;;4.88;1.00;;;7.70;99.90;;;;;;8347180;28;20021;-76
2021/01/30 09:58:17;;;;;;;10.65;3.95;;;7.70;99.90;;;;;;8341854;28;20064;-76
2021/01/30 10:02:19;;;;;;;;;;;7.80;99.90;;;;;;8338927;28;20036;-75
2021/01/30 10:06:41;;;;;;;7.22;2.50;;;7.60;99.90;;;;;;8349813;28;19917;-76
2021/01/30 10:10:42;;;;;;;4.95;1.20;;;7.70;99.90;;;;;;8351967;28;20686;-75
2021/01/30 10:14:47;;;;;;;4.53;0.98;;;7.80;99.90;;;;;;8339936;28;21285;-75
2021/01/30 10:19:07;;;;;;;5.18;1.75;;;7.70;99.90;;;;;;8345680;28;20390;-76
2021/01/30 10:23:09;;;;;;;4.70;1.02;;;7.50;99.90;;;;;;8341538;28;20649;-76
2021/01/30 10:27:25;;;;;;;8.50;1.30;;;7.50;99.90;;;;;;8353463;28;21373;-76
2021/01/30 10:31:37;;;;;;;3.17;0.80;;;7.50;99.90;;;;;;8351355;28;20029;-76
2021/01/30 10:35:42;;;;;;;5.53;0.98;;;7.60;99.90;;;;;;8345965;28;20021;-75
2021/01/30 10:40:03;;;;;;;5.18;1.35;;;7.60;99.90;;;;;;8349160;28;20753;-75
2021/01/30 10:44:04;;;;;;;;;;;7.60;99.90;;;;;;8349070;28;20025;-76
2021/01/30 10:48:07;;;;;;;4.03;0.98;;;7.60;99.90;;;;;;8354891;28;20003;-76
2021/01/30 10:52:11;;;;;;;2.72;0.55;;;7.50;99.90;;;;;;8355266;28;20025;-75
2021/01/30 10:56:28;;;;;;;5.10;0.70;;;7.40;99.90;;;;;;8361218;28;20510;-76
2021/01/30 11:00:30;;;;;;;2.08;0.63;;;7.50;99.90;;;;;;8362282;28;20025;-76
2021/01/30 11:04:30;;;;;;;3.47;0.70;;;7.60;99.90;;;;;;8361381;28;20119;-76
2021/01/30 11:08:32;;;;;;;1.63;0.50;;;8.00;99.90;;;;;;8349387;28;20032;-75
2021/01/30 11:12:33;;;;;;;3.05;0.68;;;7.60;99.90;;;;;;8328159;28;20502;-75
2021/01/30 11:16:33;;;;;;;1.30;0.40;;;7.60;99.90;;;;;;8351831;28;20033;-76
2021/01/30 11:20:46;;;;;;;0.90;0.30;;;7.90;99.90;;;;;;8359763;28;20407;-76
2021/01/30 11:24:48;;;;;;;1.35;0.30;;;8.20;99.90;;;;;;8349054;28;20028;-72
2021/01/30 11:28:49;;;;;;;2.25;0.60;;;8.30;99.90;;;;;;8340152;28;20021;-71
2021/01/30 11:33:11;;;;;;;1.77;0.57;;;8.50;99.90;;;;;;8334378;28;20029;-72
2021/01/30 11:37:14;;;;;;;1.83;0.70;;;8.70;99.90;;;;;;8354625;28;20084;-73
2021/01/30 11:41:14;;;;;;;1.85;0.60;;;8.70;99.90;;;;;;8358203;28;20033;-78
2021/01/30 11:45:15;;;;;;;2.20;0.90;;;8.50;99.90;;;;;;8357163;28;20078;-75
2021/01/30 11:49:16;;;;;;;5.10;1.85;;;8.40;99.90;;;;;;8343467;28;20479;-76
2021/01/30 11:53:20;;;;;;;4.00;1.40;;;8.60;99.90;;;;;;8353206;28;20403;-75
2021/01/30 11:57:21;;;;;;;3.35;0.70;;;8.40;99.90;;;;;;8354616;28;20040;-75
2021/01/30 12:01:22;;;;;;;4.00;1.25;;;8.30;99.90;;;;;;8358072;28;20078;-76
2021/01/30 12:05:24;;;;;;;3.22;0.52;;;7.90;99.90;;;;;;8345422;28;20032;-76
2021/01/30 12:09:24;;;;;;;4.68;0.77;;;7.40;99.90;;;;;;8350022;28;20044;-75
2021/01/30 12:13:25;;;;;;;1.70;1.05;;;7.30;99.90;;;;;;8347344;28;20032;-76
2021/01/30 12:17:38;;;;;;;3.15;1.27;;;7.20;99.90;;;;;;8355059;28;20534;-76
2021/01/30 12:21:39;;;;;;;2.38;0.93;;;6.80;99.90;;;;;;8324139;28;20115;-75
2021/01/30 12:25:39;;;;;;;4.60;1.20;;;6.80;99.90;;;;;;8341444;28;20021;-76
2021/01/30 12:29:40;;;;;;;4.45;1.77;;;6.60;99.90;;;;;;8355145;28;20028;-76
2021/01/30 12:33:40;;;;;;;3.35;0.60;;;6.60;99.90;;;;;;8356630;28;20040;-76
2021/01/30 12:37:41;;;;;;;2.70;0.80;;;6.50;99.90;;;;;;8356248;28;20087;-75
2021/01/30 12:41:42;;;;;;;7.40;2.70;;;6.50;99.90;;;;;;8359357;28;20487;-77
2021/01/30 12:45:44;;;;;;;362.15;116.53;;;6.50;99.90;;;;;;8357619;28;20033;-76
2021/01/30 12:49:45;;;;;;;53.25;17.60;;;6.60;99.90;;;;;;8346224;28;20025;-76
2021/01/30 12:53:46;;;;;;;59.38;26.42;;;6.70;99.90;;;;;;8351589;28;20483;-75
2021/01/30 12:57:47;;;;;;;13.30;6.85;;;6.60;99.90;;;;;;8360698;28;20072;-76
2021/01/30 13:01:47;;;;;;;5.60;1.60;;;6.70;99.90;;;;;;8361734;28;20083;-77
2021/01/30 13:05:48;;;;;;;13.60;5.40;;;6.30;99.90;;;;;;8360591;28;20033;-76
2021/01/30 13:09:48;;;;;;;10.10;3.67;;;6.30;99.90;;;;;;8360512;28;20029;-75
2021/01/30 13:13:49;;;;;;;7.05;2.88;;;6.30;99.90;;;;;;8350778;28;20029;-76
2021/01/30 13:17:49;;;;;;;13.65;8.68;;;6.20;99.90;;;;;;8350183;28;20018;-78
2021/01/30 13:21:50;;;;;;;15.25;12.05;;;5.90;99.90;;;;;;8350999;28;20021;-79
2021/01/30 13:25:51;;;;;;;39.63;28.60;;;5.80;99.90;;;;;;8332085;28;20034;-78
2021/01/30 13:29:52;;;;;;;19.05;11.65;;;5.80;99.90;;;;;;8356523;28;20029;-78
2021/01/30 13:33:53;;;;;;;39.60;25.52;;;5.80;99.90;;;;;;8352448;28;20032;-78
2021/01/30 13:37:54;;;;;;;34.78;22.55;;;5.90;99.90;;;;;;8340788;28;20021;-79
2021/01/30 13:42:00;;;;;;;10.32;5.35;;;5.90;99.90;;;;;;8350881;28;20029;-79
2021/01/30 13:46:01;;;;;;;7.60;6.20;;;6.00;99.90;;;;;;8351939;28;20036;-77
2021/01/30 13:50:05;;;;;;;7.38;2.95;;;6.00;99.90;;;;;;8360555;28;20495;-78
2021/01/30 13:54:05;;;;;;;8.20;3.55;;;6.00;99.90;;;;;;8352567;28;20086;-79
2021/01/30 13:58:06;;;;;;;5.93;2.28;;;6.10;99.90;;;;;;8363190;28;20063;-78
2021/01/30 14:02:06;;;;;;;56.67;29.77;;;6.20;99.90;;;;;;8363959;28;20098;-78
2021/01/30 14:06:07;;;;;;;4.50;3.03;;;6.30;99.90;;;;;;8362152;28;20025;-78
2021/01/30 14:10:10;;;;;;;8.90;2.47;;;6.20;99.90;;;;;;8355935;28;20029;-78
2021/01/30 14:14:13;;;;;;;9.85;5.80;;;6.00;99.90;;;;;;8350433;28;20032;-77
2021/01/30 14:18:17;;;;;;;11.98;5.68;;;5.90;99.90;;;;;;8362672;28;20036;-76
2021/01/30 14:22:18;;;;;;;15.43;7.03;;;5.90;99.90;;;;;;8357484;28;20056;-77
2021/01/30 14:26:21;;;;;;;3.65;1.60;;;5.70;99.90;;;;;;8357852;28;20037;-77
2021/01/30 14:30:22;;;;;;;1.67;0.90;;;5.50;99.90;;;;;;8354836;28;20029;-77
2021/01/30 14:34:23;;;;;;;0.50;0.47;;;5.30;99.90;;;;;;8361600;28;20013;-78
2021/01/30 14:38:23;;;;;;;5.00;2.97;;;5.20;99.90;;;;;;8362798;28;20020;-77
2021/01/30 14:42:24;;;;;;;3.20;1.50;;;5.10;99.90;;;;;;8363521;28;20021;-77
2021/01/30 14:46:25;;;;;;;6.18;1.40;;;5.10;99.90;;;;;;8343022;28;20033;-77
2021/01/30 14:50:25;;;;;;;2.97;1.55;;;5.10;99.90;;;;;;8344415;28;20021;-76
2021/01/30 14:54:26;;;;;;;3.45;2.25;;;5.00;99.90;;;;;;8353244;28;20388;-77
2021/01/30 14:58:27;;;;;;;4.15;1.70;;;4.90;99.90;;;;;;8351090;28;20040;-74
2021/01/30 15:02:28;;;;;;;5.85;4.22;;;4.90;99.90;;;;;;8355414;28;20104;-76
2021/01/30 15:06:29;;;;;;;2.95;1.80;;;4.80;99.90;;;;;;8359641;28;20549;-76
2021/01/30 15:10:29;;;;;;;4.68;3.17;;;4.80;99.90;;;;;;8360380;28;20052;-75
2021/01/30 15:14:30;;;;;;;4.63;3.10;;;4.90;99.90;;;;;;8359488;28;20102;-75
2021/01/30 15:18:30;;;;;;;6.57;4.03;;;4.70;99.90;;;;;;8359619;28;20029;-76
2021/01/30 15:22:31;;;;;;;5.88;3.60;;;;;;;;;;8360808;28;20032;-77
2021/01/30 15:26:36;;;;;;;15.88;7.00;;;;;;;;;;8355691;28;20468;-80
2021/01/30 15:30:42;;;;;;;1.70;1.08;;;;;;;;;;8339196;28;20025;-79
2021/01/30 15:34:44;;;;;;;6.22;3.65;;;4.90;99.90;;;;;;8341765;28;20121;-76
2021/01/30 15:38:45;;;;;;;7.72;4.30;;;;;;;;;;8359760;28;20104;-75
2021/01/30 15:42:45;;;;;;;17.75;10.07;;;4.70;99.90;;;;;;8359559;28;20029;-69
2021/01/30 15:46:46;;;;;;;11.73;7.13;;;4.70;99.90;;;;;;8357783;28;20071;-71
2021/01/30 15:50:48;;;;;;;6.18;2.90;;;4.80;99.90;;;;;;8358934;28;20056;-71
2021/01/30 15:54:48;;;;;;;2.72;2.00;;;5.10;99.90;;;;;;8350980;28;20107;-71
2021/01/30 15:58:49;;;;;;;5.45;3.55;;;5.10;99.90;;;;;;8359030;28;20029;-72
2021/01/30 16:02:50;;;;;;;5.63;3.95;;;5.10;99.90;;;;;;8357264;28;20055;-70
2021/01/30 16:06:50;;;;;;;12.63;6.68;;;4.80;99.90;;;;;;8349629;28;20699;-73
2021/01/30 16:10:51;;;;;;;12.35;5.55;;;4.90;99.90;;;;;;8344900;28;20029;-74
2021/01/30 16:14:51;;;;;;;7.30;3.92;;;4.90;99.90;;;;;;8326761;28;20026;-74
2021/01/30 16:18:52;;;;;;;7.15;4.05;;;5.00;99.90;;;;;;8332272;28;20488;-74
2021/01/30 16:22:53;;;;;;;4.63;3.00;;;5.10;99.90;;;;;;8337840;28;20029;-75
2021/01/30 16:26:53;;;;;;;5.60;3.50;;;4.90;99.90;;;;;;8352162;28;20151;-75
2021/01/30 16:30:54;;;;;;;4.65;3.10;;;4.90;99.90;;;;;;8361652;28;20538;-75
2021/01/30 16:34:55;;;;;;;4.90;2.92;;;5.10;99.90;;;;;;8362572;28;20036;-73
2021/01/30 16:38:56;;;;;;;6.00;3.72;;;5.00;99.90;;;;;;8362204;28;20044;-74
2021/01/30 16:42:57;;;;;;;8.15;4.00;;;5.00;99.90;;;;;;8360643;28;20035;-75
2021/01/30 16:46:58;;;;;;;6.22;4.15;;;5.00;99.90;;;;;;8362446;28;20565;-74
2021/01/30 16:50:59;;;;;;;7.18;4.10;;;4.90;99.90;;;;;;8360292;28;20030;-74
2021/01/30 16:54:59;;;;;;;8.13;5.10;;;4.90;99.90;;;;;;8362457;28;20070;-74
2021/01/30 16:59:00;;;;;;;12.52;6.57;;;5.00;99.90;;;;;;8360162;28;20033;-74
2021/01/30 17:03:06;;;;;;;16.73;8.75;;;4.90;99.90;;;;;;8357901;28;20032;-74
2021/01/30 17:07:07;;;;;;;10.48;6.43;;;4.80;99.90;;;;;;8349211;28;20031;-75
2021/01/30 17:11:11;;;;;;;19.23;10.82;;;4.80;99.90;;;;;;8355582;28;20029;-70
2021/01/30 17:15:12;;;;;;;15.70;8.30;;;4.80;99.90;;;;;;8359646;28;20025;-70
2021/01/30 17:19:13;;;;;;;33.42;25.95;;;4.70;99.90;;;;;;8361404;28;20029;-70
2021/01/30 17:23:13;;;;;;;10.38;6.90;;;4.90;99.90;;;;;;8361410;28;20059;-70
2021/01/30 17:27:14;;;;;;;8.55;5.70;;;4.90;99.90;;;;;;8360910;28;20091;-75
2021/01/30 17:31:14;;;;;;;10.02;6.20;;;4.80;99.90;;;;;;8348394;28;20060;-74
2021/01/30 17:35:15;;;;;;;9.75;6.22;;;4.90;99.90;;;;;;8355686;28;20466;-74
2021/01/30 17:39:16;;;;;;;14.25;9.02;;;4.90;99.90;;;;;;8359170;28;20037;-74
2021/01/30 17:43:16;;;;;;;10.75;6.60;;;5.00;99.90;;;;;;8359014;28;20491;-74
2021/01/30 17:47:17;;;;;;;10.30;7.00;;;5.00;99.90;;;;;;8345738;28;20060;-74
2021/01/30 17:51:18;;;;;;;12.95;6.35;;;4.90;99.90;;;;;;8359760;28;20017;-74
2021/01/30 17:55:18;;;;;;;12.35;7.65;;;4.80;99.90;;;;;;8349798;28;20569;-73
2021/01/30 17:59:19;;;;;;;14.93;8.85;;;4.80;99.90;;;;;;8349973;28;20036;-73
2021/01/30 18:03:19;;;;;;;18.55;11.73;;;5.00;99.90;;;;;;8350329;28;20033;-73
2021/01/30 18:07:20;;;;;;;14.25;9.68;;;5.00;99.90;;;;;;8358534;28;20029;-73
2021/01/30 18:11:20;;;;;;;15.85;9.88;;;4.90;99.90;;;;;;8357931;28;20207;-72
2021/01/30 18:15:24;;;;;;;17.70;12.30;;;4.90;99.90;;;;;;8358568;28;20044;-73
2021/01/30 18:19:25;;;;;;;20.73;11.80;;;4.90;99.90;;;;;;8356734;28;20033;-73
2021/01/30 18:23:27;;;;;;;22.02;12.68;;;4.80;99.90;;;;;;8353554;28;20017;-73
2021/01/30 18:27:27;;;;;;;23.30;13.57;;;4.70;99.90;;;;;;8347549;28;20032;-73
2021/01/30 18:31:28;;;;;;;16.00;10.13;;;4.60;99.90;;;;;;8350756;28;20119;-73
2021/01/30 18:35:29;;;;;;;11.57;7.60;;;4.70;99.90;;;;;;8348504;28;20032;-73
2021/01/30 18:39:29;;;;;;;9.60;5.70;;;4.60;99.90;;;;;;8346604;28;20078;-73
2021/01/30 18:43:30;;;;;;;10.00;7.15;;;4.60;99.90;;;;;;8356617;28;20032;-73
2021/01/30 18:47:30;;;;;;;6.97;4.60;;;4.70;99.90;;;;;;8357746;28;20021;-73
2021/01/30 18:51:31;;;;;;;9.45;4.88;;;4.70;99.90;;;;;;8357228;28;20239;-73
2021/01/30 18:55:31;;;;;;;6.07;4.40;;;4.70;99.90;;;;;;8356336;28;20510;-73
2021/01/30 18:59:32;;;;;;;6.25;4.45;;;4.80;99.90;;;;;;8356749;28;20064;-73
2021/01/30 19:03:33;;;;;;;9.73;4.57;;;4.70;99.90;;;;;;8334692;28;20029;-74
2021/01/30 19:07:35;;;;;;;6.75;4.38;;;4.70;99.90;;;;;;8322327;28;20477;-74
2021/01/30 19:11:37;;;;;;;7.07;4.40;;;4.70;99.90;;;;;;8331951;28;20029;-73
2021/01/30 19:15:38;;;;;;;7.70;4.63;;;4.60;99.90;;;;;;8334356;28;20460;-74
2021/01/30 19:19:39;;;;;;;7.82;4.88;;;4.70;99.90;;;;;;8331667;28;20025;-74
2021/01/30 19:23:40;;;;;;;7.90;4.47;;;4.60;99.90;;;;;;8328669;28;20108;-73
2021/01/30 19:27:40;;;;;;;6.57;4.68;;;4.60;99.90;;;;;;8324458;28;20040;-74
2021/01/30 19:31:41;;;;;;;8.80;5.40;;;4.70;99.90;;;;;;8324695;28;20056;-73
2021/01/30 19:35:42;;;;;;;7.72;4.30;;;4.80;99.90;;;;;;8325867;28;20033;-73
2021/01/30 19:39:43;;;;;;;8.38;5.78;;;4.90;99.90;;;;;;8345350;28;20037;-74
2021/01/30 19:43:44;;;;;;;7.93;5.75;;;4.80;99.90;;;;;;8345173;28;20032;-74
2021/01/30 19:47:44;;;;;;;9.23;5.78;;;5.00;99.90;;;;;;8334406;28;20432;-74
2021/01/30 19:51:45;;;;;;;8.40;6.20;;;5.10;99.90;;;;;;8340941;28;20084;-75
2021/01/30 19:55:48;;;;;;;6.15;4.53;;;5.20;99.90;;;;;;8321660;28;20037;-75
2021/01/30 19:59:49;;;;;;;7.57;5.57;;;5.50;99.90;;;;;;8342863;28;20738;-74
2021/01/30 20:03:51;;;;;;;9.20;6.18;;;5.50;99.90;;;;;;8327067;28;20028;-75
2021/01/30 20:07:51;;;;;;;6.70;4.88;;;5.50;99.90;;;;;;8332021;28;20299;-73
2021/01/30 20:11:52;;;;;;;6.97;5.15;;;5.40;99.90;;;;;;8330064;28;20037;-74
2021/01/30 20:15:53;;;;;;;5.60;4.65;;;5.20;99.90;;;;;;8341344;28;20036;-76
2021/01/30 20:19:53;;;;;;;5.40;4.63;;;5.20;99.90;;;;;;8338323;28;20041;-75
2021/01/30 20:23:54;;;;;;;7.78;5.40;;;5.20;99.90;;;;;;8335882;28;20033;-75
2021/01/30 20:27:55;;;;;;;11.48;5.65;;;5.20;99.90;;;;;;8351896;28;20037;-76
2021/01/30 20:31:56;;;;;;;8.82;6.43;;;5.10;99.90;;;;;;8354804;28;20029;-74
2021/01/30 20:35:56;;;;;;;8.35;5.95;;;5.10;99.90;;;;;;8345390;28;20513;-72
2021/01/30 20:39:57;;;;;;;7.93;5.50;;;5.10;99.90;;;;;;8341728;28;20749;-72
2021/01/30 20:43:57;;;;;;;7.30;5.47;;;5.30;99.90;;;;;;8332541;28;20059;-72
2021/01/30 20:47:59;;;;;;;6.82;5.28;;;5.40;99.90;;;;;;8336065;28;20040;-72
2021/01/30 20:51:59;;;;;;;5.75;4.95;;;5.50;99.90;;;;;;8344078;28;20636;-73
2021/01/30 20:56:00;;;;;;;8.52;4.78;;;5.70;99.90;;;;;;8334926;28;20032;-73
2021/01/30 21:00:01;;;;;;;6.18;4.72;;;5.70;99.90;;;;;;8333667;28;20071;-72
2021/01/30 21:04:01;;;;;;;6.07;5.00;;;5.80;99.90;;;;;;8331318;28;20065;-72
2021/01/30 21:08:03;;;;;;;5.40;3.88;;;5.60;99.90;;;;;;8337049;28;20621;-72
2021/01/30 21:12:03;;;;;;;3.65;3.20;;;5.80;99.90;;;;;;8350896;28;20021;-72
2021/01/30 21:16:04;;;;;;;4.82;3.90;;;6.00;99.90;;;;;;8356833;28;20090;-72
2021/01/30 21:20:05;;;;;;;6.70;3.67;;;6.00;99.90;;;;;;8351650;28;20034;-73
2021/01/30 21:24:06;;;;;;;5.07;4.07;;;5.80;99.90;;;;;;8343344;28;20031;-73
2021/01/30 21:28:07;;;;;;;4.82;3.90;;;5.80;99.90;;;;;;8358885;28;20029;-73
2021/01/30 21:32:08;;;;;;;5.32;4.43;;;5.80;99.90;;;;;;8358208;28;20066;-72